createdAt,value
2023-01-21T00:07:29.333Z,95.68
2023-01-21T00:22:33.446Z,95.65
2023-01-21T00:37:36.768Z,96.09
2023-01-21T00:52:40.193Z,95.76
2023-01-21T01:07:43.707Z,96.34
2023-01-21T01:22:46.810Z,95.74
2023-01-21T01:37:49.919Z,95.59
2023-01-21T01:52:54.899Z,95.12
2023-01-21T02:08:00.060Z,95.13
2023-01-21T02:23:48.792Z,95.08
2023-01-21T02:38:51.875Z,94.94
2023-01-21T02:53:55.016Z,94.82
2023-01-21T03:09:01.189Z,94.45
2023-01-21T03:24:06.778Z,93.96
2023-01-21T03:39:27.854Z,93.27
2023-01-21T03:54:31.704Z,93.45
2023-01-21T04:09:34.816Z,93.29
2023-01-21T04:24:38.178Z,93.38
2023-01-21T04:39:42.138Z,92.90
2023-01-21T04:54:45.454Z,93.28
2023-01-21T05:09:48.641Z,92.80
2023-01-21T05:24:51.787Z,93.03
2023-01-21T05:39:54.968Z,93.08
2023-01-21T05:55:02.209Z,92.87
2023-01-21T06:10:06.510Z,92.96
2023-01-21T06:25:10.873Z,94.71
2023-01-21T06:40:14.863Z,95.93
2023-01-21T06:55:18.284Z,96.47
2023-01-21T07:10:21.729Z,97.85
2023-01-21T07:25:25.957Z,98.65
2023-01-21T07:40:29.290Z,99.00
2023-01-21T07:55:32.540Z,99.54
2023-01-21T08:10:35.796Z,99.60
2023-01-21T08:25:39.128Z,99.93
2023-01-21T08:40:42.292Z,100.00
2023-01-21T08:55:45.884Z,100.00
2023-01-21T09:11:01.091Z,100.00
2023-01-21T09:26:19.875Z,100.00
2023-01-21T09:41:38.824Z,100.00
2023-01-21T09:56:56.901Z,100.00
2023-01-21T10:12:12.566Z,100.00
2023-01-21T10:27:19.902Z,100.00
2023-01-21T10:42:52.117Z,100.00
2023-01-21T10:58:05.348Z,100.00
2023-01-21T11:13:14.803Z,100.00
2023-01-21T11:28:26.674Z,100.00
2023-01-21T11:44:07.346Z,100.00
2023-01-21T11:59:21.601Z,100.00
2023-01-21T12:14:44.356Z,100.00
2023-01-21T12:30:17.030Z,100.00
2023-01-21T12:45:27.957Z,100.00
2023-01-21T13:00:43.692Z,100.00
2023-01-21T13:15:51.405Z,100.00
2023-01-21T13:31:15.455Z,100.00
2023-01-21T13:46:40.357Z,100.00
2023-01-21T14:01:49.734Z,100.00
2023-01-21T14:17:05.442Z,100.00
2023-01-21T14:32:22.465Z,100.00
2023-01-21T14:47:31.690Z,100.00
2023-01-21T15:02:45.541Z,100.00
2023-01-21T15:17:54.931Z,100.00
2023-01-21T15:33:00.876Z,100.00
2023-01-21T15:48:11.048Z,100.00
2023-01-21T16:03:27.281Z,100.00
2023-01-21T16:18:39.388Z,100.00
2023-01-21T16:33:43.342Z,100.00
2023-01-21T16:48:57.573Z,100.00
2023-01-21T17:04:01.762Z,100.00
2023-01-21T17:19:26.333Z,100.00
2023-01-21T17:34:37.899Z,100.00
2023-01-21T17:49:45.864Z,100.00
2023-01-21T18:04:49.380Z,100.00
2023-01-21T18:19:53.925Z,100.00
2023-01-21T18:34:57.274Z,100.00
2023-01-21T18:50:03.379Z,100.00
2023-01-21T19:05:07.073Z,100.00
2023-01-21T19:20:22.306Z,100.00
2023-01-21T19:35:34.453Z,100.00
2023-01-21T19:50:38.112Z,100.00
2023-01-21T20:05:42.677Z,100.00
2023-01-21T20:20:46.436Z,100.00
2023-01-21T20:35:52.931Z,100.00
2023-01-21T20:50:56.463Z,100.00
2023-01-21T21:05:59.726Z,100.00
2023-01-21T21:21:03.273Z,100.00
2023-01-21T21:36:13.247Z,100.00
2023-01-21T21:51:19.841Z,100.00
2023-01-21T22:06:23.467Z,100.00
2023-01-21T22:21:33.055Z,100.00
2023-01-21T22:36:36.922Z,100.00
2023-01-21T22:51:41.851Z,100.00
2023-01-21T23:06:45.418Z,100.00
2023-01-21T23:21:48.564Z,100.00
2023-01-21T23:36:51.710Z,100.00
2023-01-21T23:51:54.854Z,100.00
